sensor_id;sensor_type;location;lat;lon;timestamp;P1;durP1;ratioP1;P2;durP2;ratioP2
11823;SDS011;5969;50.780;7.726;2024-03-23T00:56:11;5.95;;;5.05;;
11823;SDS011;5969;50.780;7.726;2024-03-23T00:58:39;5.22;;;4.57;;
11823;SDS011;5969;50.780;7.726;2024-03-23T01:01:05;6.50;;;4.95;;
11823;SDS011;5969;50.780;7.726;2024-03-23T01:03:32;4.38;;;3.78;;
11823;SDS011;5969;50.780;7.726;2024-03-23T01:05:58;6.00;;;4.38;;
11823;SDS011;5969;50.780;7.726;2024-03-23T01:08:26;3.70;;;3.35;;
11823;SDS011;5969;50.780;7.726;2024-03-23T01:10:55;3.63;;;2.55;;
11823;SDS011;5969;50.780;7.726;2024-03-23T01:13:23;3.75;;;2.55;;
11823;SDS011;5969;50.780;7.726;2024-03-23T01:15:50;3.15;;;2.30;;
11823;SDS011;5969;50.780;7.726;2024-03-23T01:18:17;4.07;;;2.63;;
11823;SDS011;5969;50.780;7.726;2024-03-23T01:20:43;2.60;;;2.40;;
11823;SDS011;5969;50.780;7.726;2024-03-23T01:23:10;2.35;;;2.15;;
11823;SDS011;5969;50.780;7.726;2024-03-23T01:25:36;2.50;;;2.28;;
11823;SDS011;5969;50.780;7.726;2024-03-23T01:28:04;2.13;;;1.83;;
11823;SDS011;5969;50.780;7.726;2024-03-23T01:30:32;2.88;;;2.28;;
11823;SDS011;5969;50.780;7.726;2024-03-23T01:32:59;2.13;;;1.90;;
11823;SDS011;5969;50.780;7.726;2024-03-23T01:35:26;3.08;;;1.80;;
11823;SDS011;5969;50.780;7.726;2024-03-23T01:37:53;2.55;;;2.00;;
11823;SDS011;5969;50.780;7.726;2024-03-23T01:40:19;4.32;;;2.38;;
11823;SDS011;5969;50.780;7.726;2024-03-23T01:42:54;3.53;;;2.17;;
11823;SDS011;5969;50.780;7.726;2024-03-23T01:45:21;2.70;;;2.25;;
11823;SDS011;5969;50.780;7.726;2024-03-23T01:47:49;2.47;;;2.20;;
11823;SDS011;5969;50.780;7.726;2024-03-23T01:50:15;2.78;;;2.30;;
11823;SDS011;5969;50.780;7.726;2024-03-23T01:52:43;2.53;;;2.20;;
11823;SDS011;5969;50.780;7.726;2024-03-23T01:55:09;4.25;;;2.40;;
11823;SDS011;5969;50.780;7.726;2024-03-23T01:57:37;2.58;;;1.90;;
11823;SDS011;5969;50.780;7.726;2024-03-23T02:00:03;2.20;;;1.80;;
11823;SDS011;5969;50.780;7.726;2024-03-23T02:02:31;1.80;;;1.67;;
11823;SDS011;5969;50.780;7.726;2024-03-23T02:04:58;3.70;;;1.92;;
11823;SDS011;5969;50.780;7.726;2024-03-23T02:07:26;1.85;;;1.65;;
11823;SDS011;5969;50.780;7.726;2024-03-23T02:09:52;3.20;;;1.73;;
11823;SDS011;5969;50.780;7.726;2024-03-23T02:12:19;1.70;;;1.58;;
11823;SDS011;5969;50.780;7.726;2024-03-23T02:14:46;3.20;;;1.83;;
11823;SDS011;5969;50.780;7.726;2024-03-23T02:17:13;1.92;;;1.70;;
11823;SDS011;5969;50.780;7.726;2024-03-23T02:19:39;2.63;;;1.80;;
11823;SDS011;5969;50.780;7.726;2024-03-23T02:22:08;2.00;;;1.73;;
11823;SDS011;5969;50.780;7.726;2024-03-23T02:24:37;3.40;;;1.88;;
11823;SDS011;5969;50.780;7.726;2024-03-23T02:27:04;2.08;;;1.73;;
11823;SDS011;5969;50.780;7.726;2024-03-23T02:29:30;1.90;;;1.60;;
11823;SDS011;5969;50.780;7.726;2024-03-23T02:31:57;2.25;;;1.90;;
11823;SDS011;5969;50.780;7.726;2024-03-23T02:34:23;1.98;;;1.73;;
11823;SDS011;5969;50.780;7.726;2024-03-23T02:36:50;2.67;;;1.92;;
11823;SDS011;5969;50.780;7.726;2024-03-23T02:39:17;3.28;;;1.80;;
11823;SDS011;5969;50.780;7.726;2024-03-23T02:41:45;2.70;;;1.80;;
11823;SDS011;5969;50.780;7.726;2024-03-23T02:44:13;2.40;;;1.90;;
11823;SDS011;5969;50.780;7.726;2024-03-23T02:46:40;3.70;;;2.20;;
11823;SDS011;5969;50.780;7.726;2024-03-23T02:49:06;3.33;;;2.13;;
11823;SDS011;5969;50.780;7.726;2024-03-23T02:51:33;2.28;;;2.00;;
11823;SDS011;5969;50.780;7.726;2024-03-23T02:53:59;2.53;;;1.98;;
11823;SDS011;5969;50.780;7.726;2024-03-23T02:56:26;4.13;;;2.28;;
11823;SDS011;5969;50.780;7.726;2024-03-23T02:58:54;3.75;;;2.33;;
11823;SDS011;5969;50.780;7.726;2024-03-23T03:01:21;4.07;;;2.17;;
11823;SDS011;5969;50.780;7.726;2024-03-23T03:03:47;2.60;;;2.10;;
11823;SDS011;5969;50.780;7.726;2024-03-23T03:06:22;2.63;;;2.20;;
11823;SDS011;5969;50.780;7.726;2024-03-23T03:08:48;3.65;;;2.35;;
11823;SDS011;5969;50.780;7.726;2024-03-23T03:11:15;3.58;;;2.58;;
11823;SDS011;5969;50.780;7.726;2024-03-23T03:13:41;3.45;;;2.35;;
11823;SDS011;5969;50.780;7.726;2024-03-23T03:16:10;2.92;;;2.20;;
11823;SDS011;5969;50.780;7.726;2024-03-23T03:18:36;3.05;;;2.25;;
11823;SDS011;5969;50.780;7.726;2024-03-23T03:21:03;5.32;;;2.45;;
11823;SDS011;5969;50.780;7.726;2024-03-23T03:23:30;3.97;;;2.47;;
11823;SDS011;5969;50.780;7.726;2024-03-23T03:25:57;3.83;;;2.40;;
11823;SDS011;5969;50.780;7.726;2024-03-23T03:28:23;3.95;;;2.58;;
11823;SDS011;5969;50.780;7.726;2024-03-23T03:30:55;3.20;;;2.50;;
11823;SDS011;5969;50.780;7.726;2024-03-23T03:33:23;3.42;;;2.50;;
11823;SDS011;5969;50.780;7.726;2024-03-23T03:35:50;4.03;;;2.53;;
11823;SDS011;5969;50.780;7.726;2024-03-23T03:38:17;3.78;;;2.45;;
11823;SDS011;5969;50.780;7.726;2024-03-23T03:40:44;2.70;;;2.03;;
11823;SDS011;5969;50.780;7.726;2024-03-23T03:43:10;5.13;;;2.40;;
11823;SDS011;5969;50.780;7.726;2024-03-23T03:45:37;2.45;;;1.80;;
11823;SDS011;5969;50.780;7.726;2024-03-23T03:48:03;2.35;;;1.58;;
11823;SDS011;5969;50.780;7.726;2024-03-23T03:50:31;1.45;;;1.30;;
11823;SDS011;5969;50.780;7.726;2024-03-23T03:52:58;2.58;;;1.35;;
11823;SDS011;5969;50.780;7.726;2024-03-23T03:55:25;2.80;;;1.38;;
11823;SDS011;5969;50.780;7.726;2024-03-23T03:57:51;2.45;;;1.27;;
11823;SDS011;5969;50.780;7.726;2024-03-23T04:00:18;1.20;;;1.08;;
11823;SDS011;5969;50.780;7.726;2024-03-23T04:02:44;1.85;;;1.17;;
11823;SDS011;5969;50.780;7.726;2024-03-23T04:05:12;2.00;;;1.23;;
11823;SDS011;5969;50.780;7.726;2024-03-23T04:07:39;1.70;;;1.10;;
11823;SDS011;5969;50.780;7.726;2024-03-23T04:10:06;2.92;;;1.10;;
11823;SDS011;5969;50.780;7.726;2024-03-23T04:12:33;1.75;;;1.35;;
11823;SDS011;5969;50.780;7.726;2024-03-23T04:15:00;1.70;;;1.20;;
11823;SDS011;5969;50.780;7.726;2024-03-23T04:17:28;4.30;;;1.65;;
11823;SDS011;5969;50.780;7.726;2024-03-23T04:19:57;3.28;;;1.42;;
11823;SDS011;5969;50.780;7.726;2024-03-23T04:22:23;3.00;;;1.40;;
11823;SDS011;5969;50.780;7.726;2024-03-23T04:24:52;5.25;;;1.58;;
11823;SDS011;5969;50.780;7.726;2024-03-23T04:27:18;5.05;;;1.65;;
11823;SDS011;5969;50.780;7.726;2024-03-23T04:29:46;2.17;;;1.48;;
11823;SDS011;5969;50.780;7.726;2024-03-23T04:32:13;5.57;;;1.88;;
11823;SDS011;5969;50.780;7.726;2024-03-23T04:34:40;4.53;;;1.80;;
11823;SDS011;5969;50.780;7.726;2024-03-23T04:37:06;4.97;;;1.70;;
11823;SDS011;5969;50.780;7.726;2024-03-23T04:39:33;5.25;;;1.95;;
11823;SDS011;5969;50.780;7.726;2024-03-23T04:42:03;3.50;;;1.67;;
11823;SDS011;5969;50.780;7.726;2024-03-23T04:44:30;3.33;;;1.77;;
11823;SDS011;5969;50.780;7.726;2024-03-23T04:46:58;4.75;;;1.50;;
11823;SDS011;5969;50.780;7.726;2024-03-23T04:49:25;6.10;;;1.50;;
11823;SDS011;5969;50.780;7.726;2024-03-23T04:51:52;4.03;;;1.63;;
11823;SDS011;5969;50.780;7.726;2024-03-23T04:54:19;5.40;;;2.22;;
11823;SDS011;5969;50.780;7.726;2024-03-23T04:56:46;3.50;;;1.33;;
11823;SDS011;5969;50.780;7.726;2024-03-23T04:59:15;8.23;;;1.80;;
11823;SDS011;5969;50.780;7.726;2024-03-23T05:01:41;2.92;;;1.92;;
11823;SDS011;5969;50.780;7.726;2024-03-23T05:04:08;5.70;;;2.25;;
11823;SDS011;5969;50.780;7.726;2024-03-23T05:06:35;3.67;;;2.00;;
11823;SDS011;5969;50.780;7.726;2024-03-23T05:09:02;6.57;;;2.33;;
11823;SDS011;5969;50.780;7.726;2024-03-23T05:11:31;4.35;;;1.83;;
11823;SDS011;5969;50.780;7.726;2024-03-23T05:13:58;4.47;;;1.98;;
11823;SDS011;5969;50.780;7.726;2024-03-23T05:16:25;6.95;;;2.10;;
11823;SDS011;5969;50.780;7.726;2024-03-23T05:18:53;5.78;;;2.47;;
11823;SDS011;5969;50.780;7.726;2024-03-23T05:21:19;5.30;;;2.38;;
11823;SDS011;5969;50.780;7.726;2024-03-23T05:23:46;4.03;;;1.80;;
11823;SDS011;5969;50.780;7.726;2024-03-23T05:26:12;5.18;;;1.77;;
11823;SDS011;5969;50.780;7.726;2024-03-23T05:28:39;6.10;;;2.17;;
11823;SDS011;5969;50.780;7.726;2024-03-23T05:31:05;6.32;;;2.25;;
11823;SDS011;5969;50.780;7.726;2024-03-23T05:33:35;6.55;;;2.10;;
11823;SDS011;5969;50.780;7.726;2024-03-23T05:36:03;6.82;;;1.80;;
11823;SDS011;5969;50.780;7.726;2024-03-23T05:38:30;5.25;;;2.92;;
11823;SDS011;5969;50.780;7.726;2024-03-23T05:40:56;7.80;;;3.90;;
11823;SDS011;5969;50.780;7.726;2024-03-23T05:43:24;6.65;;;3.15;;
11823;SDS011;5969;50.780;7.726;2024-03-23T05:45:53;5.88;;;3.60;;
11823;SDS011;5969;50.780;7.726;2024-03-23T05:48:20;7.05;;;2.67;;
11823;SDS011;5969;50.780;7.726;2024-03-23T05:50:48;6.90;;;2.28;;
11823;SDS011;5969;50.780;7.726;2024-03-23T05:53:15;5.85;;;2.10;;
11823;SDS011;5969;50.780;7.726;2024-03-23T05:55:41;8.38;;;2.50;;
11823;SDS011;5969;50.780;7.726;2024-03-23T05:58:08;4.97;;;2.47;;
11823;SDS011;5969;50.780;7.726;2024-03-23T06:00:35;5.63;;;2.47;;
11823;SDS011;5969;50.780;7.726;2024-03-23T06:03:02;5.40;;;1.85;;
11823;SDS011;5969;50.780;7.726;2024-03-23T06:05:28;5.88;;;2.00;;
11823;SDS011;5969;50.780;7.726;2024-03-23T06:07:57;5.65;;;2.40;;
11823;SDS011;5969;50.780;7.726;2024-03-23T06:10:23;5.25;;;2.20;;
11823;SDS011;5969;50.780;7.726;2024-03-23T06:12:50;6.65;;;2.75;;
11823;SDS011;5969;50.780;7.726;2024-03-23T06:15:17;6.05;;;2.22;;
11823;SDS011;5969;50.780;7.726;2024-03-23T06:17:44;7.10;;;2.58;;
11823;SDS011;5969;50.780;7.726;2024-03-23T06:20:11;6.85;;;2.53;;
11823;SDS011;5969;50.780;7.726;2024-03-23T06:22:37;4.68;;;2.38;;
11823;SDS011;5969;50.780;7.726;2024-03-23T06:25:06;8.63;;;2.72;;
11823;SDS011;5969;50.780;7.726;2024-03-23T06:27:32;8.45;;;2.90;;
11823;SDS011;5969;50.780;7.726;2024-03-23T06:30:00;7.38;;;2.67;;
11823;SDS011;5969;50.780;7.726;2024-03-23T06:32:27;5.05;;;3.05;;
11823;SDS011;5969;50.780;7.726;2024-03-23T06:34:54;7.32;;;3.00;;
11823;SDS011;5969;50.780;7.726;2024-03-23T06:37:21;7.97;;;2.95;;
11823;SDS011;5969;50.780;7.726;2024-03-23T06:39:48;6.35;;;3.60;;
11823;SDS011;5969;50.780;7.726;2024-03-23T06:42:15;7.88;;;3.83;;
11823;SDS011;5969;50.780;7.726;2024-03-23T06:44:43;13.00;;;3.97;;
11823;SDS011;5969;50.780;7.726;2024-03-23T06:47:11;9.60;;;4.03;;
11823;SDS011;5969;50.780;7.726;2024-03-23T06:49:38;6.35;;;3.85;;
11823;SDS011;5969;50.780;7.726;2024-03-23T06:52:05;12.07;;;4.45;;
11823;SDS011;5969;50.780;7.726;2024-03-23T06:54:31;15.10;;;4.60;;
11823;SDS011;5969;50.780;7.726;2024-03-23T06:56:58;11.68;;;4.43;;
11823;SDS011;5969;50.780;7.726;2024-03-23T06:59:26;14.65;;;5.47;;
11823;SDS011;5969;50.780;7.726;2024-03-23T07:01:53;8.23;;;4.32;;
11823;SDS011;5969;50.780;7.726;2024-03-23T07:04:19;12.32;;;4.20;;
11823;SDS011;5969;50.780;7.726;2024-03-23T07:06:46;11.02;;;4.95;;
11823;SDS011;5969;50.780;7.726;2024-03-23T07:09:12;12.98;;;5.00;;
11823;SDS011;5969;50.780;7.726;2024-03-23T07:11:39;9.95;;;4.43;;
11823;SDS011;5969;50.780;7.726;2024-03-23T07:14:05;14.80;;;5.57;;
11823;SDS011;5969;50.780;7.726;2024-03-23T07:16:34;10.25;;;5.25;;
11823;SDS011;5969;50.780;7.726;2024-03-23T07:19:00;9.38;;;5.00;;
11823;SDS011;5969;50.780;7.726;2024-03-23T07:21:27;12.23;;;5.38;;
11823;SDS011;5969;50.780;7.726;2024-03-23T07:23:53;14.35;;;5.63;;
11823;SDS011;5969;50.780;7.726;2024-03-23T07:26:20;11.38;;;4.57;;
11823;SDS011;5969;50.780;7.726;2024-03-23T07:28:46;11.65;;;4.20;;
11823;SDS011;5969;50.780;7.726;2024-03-23T07:31:14;8.90;;;3.60;;
11823;SDS011;5969;50.780;7.726;2024-03-23T07:33:45;9.25;;;3.55;;
11823;SDS011;5969;50.780;7.726;2024-03-23T07:36:12;10.85;;;3.75;;
11823;SDS011;5969;50.780;7.726;2024-03-23T07:38:40;5.70;;;3.60;;
11823;SDS011;5969;50.780;7.726;2024-03-23T07:41:07;9.73;;;3.70;;
11823;SDS011;5969;50.780;7.726;2024-03-23T07:43:34;11.57;;;3.88;;
11823;SDS011;5969;50.780;7.726;2024-03-23T07:46:01;8.25;;;3.28;;
11823;SDS011;5969;50.780;7.726;2024-03-23T07:48:28;10.90;;;4.07;;
11823;SDS011;5969;50.780;7.726;2024-03-23T07:50:58;11.10;;;3.10;;
11823;SDS011;5969;50.780;7.726;2024-03-23T07:53:24;9.32;;;3.50;;
11823;SDS011;5969;50.780;7.726;2024-03-23T07:55:55;10.10;;;3.67;;
11823;SDS011;5969;50.780;7.726;2024-03-23T07:58:22;7.97;;;3.95;;
11823;SDS011;5969;50.780;7.726;2024-03-23T08:00:48;13.27;;;3.83;;
11823;SDS011;5969;50.780;7.726;2024-03-23T08:03:15;10.93;;;3.85;;
11823;SDS011;5969;50.780;7.726;2024-03-23T08:05:41;9.43;;;4.18;;
11823;SDS011;5969;50.780;7.726;2024-03-23T08:08:10;13.52;;;4.18;;
11823;SDS011;5969;50.780;7.726;2024-03-23T08:10:36;11.35;;;4.45;;
11823;SDS011;5969;50.780;7.726;2024-03-23T08:13:03;11.75;;;4.82;;
11823;SDS011;5969;50.780;7.726;2024-03-23T08:15:30;10.20;;;4.22;;
11823;SDS011;5969;50.780;7.726;2024-03-23T08:17:59;8.30;;;4.18;;
11823;SDS011;5969;50.780;7.726;2024-03-23T08:20:25;11.23;;;5.22;;
11823;SDS011;5969;50.780;7.726;2024-03-23T08:22:53;7.40;;;4.57;;
11823;SDS011;5969;50.780;7.726;2024-03-23T08:25:20;8.27;;;4.78;;
11823;SDS011;5969;50.780;7.726;2024-03-23T08:27:47;11.98;;;5.13;;
11823;SDS011;5969;50.780;7.726;2024-03-23T08:30:13;12.20;;;4.05;;
11823;SDS011;5969;50.780;7.726;2024-03-23T08:32:41;13.13;;;5.13;;
11823;SDS011;5969;50.780;7.726;2024-03-23T08:35:08;10.63;;;4.20;;
11823;SDS011;5969;50.780;7.726;2024-03-23T08:37:35;11.07;;;4.88;;
11823;SDS011;5969;50.780;7.726;2024-03-23T08:40:01;12.80;;;4.88;;
11823;SDS011;5969;50.780;7.726;2024-03-23T08:42:31;10.23;;;4.78;;
11823;SDS011;5969;50.780;7.726;2024-03-23T08:44:57;13.20;;;4.57;;
11823;SDS011;5969;50.780;7.726;2024-03-23T08:47:24;10.25;;;4.60;;
11823;SDS011;5969;50.780;7.726;2024-03-23T08:49:50;13.45;;;4.03;;
11823;SDS011;5969;50.780;7.726;2024-03-23T08:52:17;10.85;;;4.43;;
11823;SDS011;5969;50.780;7.726;2024-03-23T08:54:43;9.65;;;4.45;;
11823;SDS011;5969;50.780;7.726;2024-03-23T08:57:11;13.27;;;4.85;;
11823;SDS011;5969;50.780;7.726;2024-03-23T08:59:38;12.13;;;4.97;;
11823;SDS011;5969;50.780;7.726;2024-03-23T09:02:05;13.02;;;4.63;;
11823;SDS011;5969;50.780;7.726;2024-03-23T09:04:31;12.07;;;4.15;;
11823;SDS011;5969;50.780;7.726;2024-03-23T09:06:59;8.95;;;4.00;;
11823;SDS011;5969;50.780;7.726;2024-03-23T09:09:25;10.68;;;4.60;;
11823;SDS011;5969;50.780;7.726;2024-03-23T09:11:52;11.32;;;4.70;;
11823;SDS011;5969;50.780;7.726;2024-03-23T09:14:18;9.98;;;4.68;;
11823;SDS011;5969;50.780;7.726;2024-03-23T09:16:49;13.35;;;5.18;;
11823;SDS011;5969;50.780;7.726;2024-03-23T09:19:16;9.30;;;4.40;;
11823;SDS011;5969;50.780;7.726;2024-03-23T09:21:43;9.23;;;4.30;;
11823;SDS011;5969;50.780;7.726;2024-03-23T09:24:10;9.68;;;4.18;;
11823;SDS011;5969;50.780;7.726;2024-03-23T09:26:37;10.93;;;4.55;;
11823;SDS011;5969;50.780;7.726;2024-03-23T09:29:03;8.82;;;4.00;;
11823;SDS011;5969;50.780;7.726;2024-03-23T09:31:30;9.80;;;4.50;;
11823;SDS011;5969;50.780;7.726;2024-03-23T09:34:00;8.63;;;3.78;;
11823;SDS011;5969;50.780;7.726;2024-03-23T09:36:27;9.90;;;3.25;;
11823;SDS011;5969;50.780;7.726;2024-03-23T09:38:53;10.43;;;3.75;;
11823;SDS011;5969;50.780;7.726;2024-03-23T09:41:20;10.70;;;3.38;;
11823;SDS011;5969;50.780;7.726;2024-03-23T09:43:46;10.20;;;3.70;;
11823;SDS011;5969;50.780;7.726;2024-03-23T09:46:14;6.47;;;3.47;;
11823;SDS011;5969;50.780;7.726;2024-03-23T09:48:41;8.00;;;3.60;;
11823;SDS011;5969;50.780;7.726;2024-03-23T09:51:12;8.25;;;3.83;;
11823;SDS011;5969;50.780;7.726;2024-03-23T09:53:39;11.07;;;4.32;;
11823;SDS011;5969;50.780;7.726;2024-03-23T09:56:07;8.55;;;4.03;;
11823;SDS011;5969;50.780;7.726;2024-03-23T09:58:33;11.23;;;4.53;;
11823;SDS011;5969;50.780;7.726;2024-03-23T10:01:01;12.07;;;4.00;;
11823;SDS011;5969;50.780;7.726;2024-03-23T10:03:27;12.35;;;4.47;;
11823;SDS011;5969;50.780;7.726;2024-03-23T10:06:01;9.00;;;3.90;;
11823;SDS011;5969;50.780;7.726;2024-03-23T10:08:28;7.43;;;3.47;;
11823;SDS011;5969;50.780;7.726;2024-03-23T10:10:58;7.32;;;3.67;;
11823;SDS011;5969;50.780;7.726;2024-03-23T10:13:38;8.65;;;3.90;;
11823;SDS011;5969;50.780;7.726;2024-03-23T10:16:08;7.57;;;3.20;;
11823;SDS011;5969;50.780;7.726;2024-03-23T10:18:36;9.43;;;3.78;;
11823;SDS011;5969;50.780;7.726;2024-03-23T10:21:07;9.30;;;3.65;;
11823;SDS011;5969;50.780;7.726;2024-03-23T10:23:35;8.02;;;3.78;;
11823;SDS011;5969;50.780;7.726;2024-03-23T10:26:12;7.70;;;3.70;;
11823;SDS011;5969;50.780;7.726;2024-03-23T10:28:43;9.13;;;4.10;;
11823;SDS011;5969;50.780;7.726;2024-03-23T10:31:17;6.00;;;3.78;;
11823;SDS011;5969;50.780;7.726;2024-03-23T10:33:44;7.38;;;3.35;;
11823;SDS011;5969;50.780;7.726;2024-03-23T10:36:11;7.72;;;3.80;;
11823;SDS011;5969;50.780;7.726;2024-03-23T10:38:40;4.22;;;2.47;;
11823;SDS011;5969;50.780;7.726;2024-03-23T10:41:07;5.45;;;2.63;;
11823;SDS011;5969;50.780;7.726;2024-03-23T10:43:38;6.47;;;2.10;;
11823;SDS011;5969;50.780;7.726;2024-03-23T10:46:05;5.82;;;2.13;;
11823;SDS011;5969;50.780;7.726;2024-03-23T10:48:32;6.07;;;2.70;;
11823;SDS011;5969;50.780;7.726;2024-03-23T10:51:00;7.65;;;2.50;;
11823;SDS011;5969;50.780;7.726;2024-03-23T10:53:26;9.55;;;2.70;;
11823;SDS011;5969;50.780;7.726;2024-03-23T10:55:55;8.02;;;2.70;;
11823;SDS011;5969;50.780;7.726;2024-03-23T10:58:23;7.53;;;2.95;;
11823;SDS011;5969;50.780;7.726;2024-03-23T11:00:51;6.63;;;2.67;;
11823;SDS011;5969;50.780;7.726;2024-03-23T11:03:34;4.25;;;1.88;;
11823;SDS011;5969;50.780;7.726;2024-03-23T11:06:02;9.18;;;2.58;;
11823;SDS011;5969;50.780;7.726;2024-03-23T11:08:32;4.63;;;2.40;;
11823;SDS011;5969;50.780;7.726;2024-03-23T11:11:13;6.90;;;2.45;;
11823;SDS011;5969;50.780;7.726;2024-03-23T11:13:39;6.47;;;2.00;;
11823;SDS011;5969;50.780;7.726;2024-03-23T11:16:13;4.68;;;2.22;;
11823;SDS011;5969;50.780;7.726;2024-03-23T11:18:39;9.38;;;2.30;;
11823;SDS011;5969;50.780;7.726;2024-03-23T11:21:07;5.80;;;2.30;;
11823;SDS011;5969;50.780;7.726;2024-03-23T11:23:33;3.88;;;1.65;;
11823;SDS011;5969;50.780;7.726;2024-03-23T11:26:00;5.05;;;1.63;;
11823;SDS011;5969;50.780;7.726;2024-03-23T11:28:28;4.00;;;1.35;;
11823;SDS011;5969;50.780;7.726;2024-03-23T11:30:55;1.80;;;1.00;;
11823;SDS011;5969;50.780;7.726;2024-03-23T11:33:21;1.95;;;0.85;;
11823;SDS011;5969;50.780;7.726;2024-03-23T11:35:48;2.60;;;0.93;;
11823;SDS011;5969;50.780;7.726;2024-03-23T11:38:15;3.83;;;1.13;;
11823;SDS011;5969;50.780;7.726;2024-03-23T11:40:43;1.25;;;0.70;;
11823;SDS011;5969;50.780;7.726;2024-03-23T11:43:10;2.00;;;0.90;;
11823;SDS011;5969;50.780;7.726;2024-03-23T11:45:39;1.40;;;0.60;;
11823;SDS011;5969;50.780;7.726;2024-03-23T11:48:07;0.88;;;0.68;;
11823;SDS011;5969;50.780;7.726;2024-03-23T11:50:37;1.00;;;0.60;;
11823;SDS011;5969;50.780;7.726;2024-03-23T11:53:13;1.77;;;1.05;;
11823;SDS011;5969;50.780;7.726;2024-03-23T11:55:47;1.20;;;0.90;;
11823;SDS011;5969;50.780;7.726;2024-03-23T11:58:13;2.35;;;1.13;;
11823;SDS011;5969;50.780;7.726;2024-03-23T12:00:42;1.63;;;1.15;;
11823;SDS011;5969;50.780;7.726;2024-03-23T12:03:15;2.83;;;1.15;;
11823;SDS011;5969;50.780;7.726;2024-03-23T12:05:47;4.00;;;1.33;;
11823;SDS011;5969;50.780;7.726;2024-03-23T12:08:19;4.55;;;1.38;;
11823;SDS011;5969;50.780;7.726;2024-03-23T12:10:48;4.75;;;1.77;;
11823;SDS011;5969;50.780;7.726;2024-03-23T12:13:15;4.20;;;1.50;;
11823;SDS011;5969;50.780;7.726;2024-03-23T12:15:45;2.28;;;1.50;;
11823;SDS011;5969;50.780;7.726;2024-03-23T12:18:12;4.90;;;2.10;;
11823;SDS011;5969;50.780;7.726;2024-03-23T12:20:39;5.63;;;1.75;;
11823;SDS011;5969;50.780;7.726;2024-03-23T12:23:09;3.13;;;1.70;;
11823;SDS011;5969;50.780;7.726;2024-03-23T12:25:37;5.22;;;1.83;;
11823;SDS011;5969;50.780;7.726;2024-03-23T12:28:03;4.85;;;1.70;;
11823;SDS011;5969;50.780;7.726;2024-03-23T12:30:32;5.93;;;1.90;;
11823;SDS011;5969;50.780;7.726;2024-03-23T12:33:00;5.30;;;1.73;;
11823;SDS011;5969;50.780;7.726;2024-03-23T12:35:28;5.38;;;2.00;;
11823;SDS011;5969;50.780;7.726;2024-03-23T12:37:54;3.40;;;1.70;;
11823;SDS011;5969;50.780;7.726;2024-03-23T12:40:21;3.78;;;1.52;;
11823;SDS011;5969;50.780;7.726;2024-03-23T12:42:48;2.63;;;1.25;;
11823;SDS011;5969;50.780;7.726;2024-03-23T12:45:15;5.47;;;1.70;;
11823;SDS011;5969;50.780;7.726;2024-03-23T12:47:42;5.53;;;1.85;;
11823;SDS011;5969;50.780;7.726;2024-03-23T12:50:10;2.78;;;1.20;;
11823;SDS011;5969;50.780;7.726;2024-03-23T12:52:36;2.53;;;1.08;;
11823;SDS011;5969;50.780;7.726;2024-03-23T12:55:04;2.08;;;1.20;;
11823;SDS011;5969;50.780;7.726;2024-03-23T12:57:30;2.35;;;1.20;;
11823;SDS011;5969;50.780;7.726;2024-03-23T12:59:58;3.05;;;1.25;;
11823;SDS011;5969;50.780;7.726;2024-03-23T13:02:24;2.88;;;1.27;;
11823;SDS011;5969;50.780;7.726;2024-03-23T13:04:51;2.72;;;1.20;;
11823;SDS011;5969;50.780;7.726;2024-03-23T13:07:19;1.75;;;1.38;;
11823;SDS011;5969;50.780;7.726;2024-03-23T13:09:46;1.73;;;1.15;;
11823;SDS011;5969;50.780;7.726;2024-03-23T13:12:13;3.40;;;1.45;;
11823;SDS011;5969;50.780;7.726;2024-03-23T13:14:40;2.47;;;1.30;;
11823;SDS011;5969;50.780;7.726;2024-03-23T13:17:07;2.75;;;1.17;;
11823;SDS011;5969;50.780;7.726;2024-03-23T13:19:34;4.47;;;1.83;;
11823;SDS011;5969;50.780;7.726;2024-03-23T13:22:00;4.28;;;1.50;;
11823;SDS011;5969;50.780;7.726;2024-03-23T13:24:30;9.48;;;7.00;;
11823;SDS011;5969;50.780;7.726;2024-03-23T13:26:56;4.72;;;3.60;;
11823;SDS011;5969;50.780;7.726;2024-03-23T13:29:23;6.78;;;2.15;;
11823;SDS011;5969;50.780;7.726;2024-03-23T13:31:50;8.60;;;6.72;;
11823;SDS011;5969;50.780;7.726;2024-03-23T13:34:17;6.55;;;4.57;;
11823;SDS011;5969;50.780;7.726;2024-03-23T13:36:44;5.28;;;2.67;;
11823;SDS011;5969;50.780;7.726;2024-03-23T13:39:11;5.25;;;3.58;;
11823;SDS011;5969;50.780;7.726;2024-03-23T13:41:39;4.18;;;2.10;;
11823;SDS011;5969;50.780;7.726;2024-03-23T13:44:07;4.68;;;2.30;;
11823;SDS011;5969;50.780;7.726;2024-03-23T13:46:33;4.97;;;1.70;;
11823;SDS011;5969;50.780;7.726;2024-03-23T13:49:00;3.53;;;1.67;;
11823;SDS011;5969;50.780;7.726;2024-03-23T13:51:26;2.25;;;1.70;;
11823;SDS011;5969;50.780;7.726;2024-03-23T13:53:53;2.40;;;1.90;;
11823;SDS011;5969;50.780;7.726;2024-03-23T13:56:20;4.28;;;1.95;;
11823;SDS011;5969;50.780;7.726;2024-03-23T13:58:48;4.57;;;1.67;;
11823;SDS011;5969;50.780;7.726;2024-03-23T14:01:14;2.95;;;1.80;;
11823;SDS011;5969;50.780;7.726;2024-03-23T14:03:41;4.13;;;2.50;;
11823;SDS011;5969;50.780;7.726;2024-03-23T14:06:08;3.30;;;2.05;;
11823;SDS011;5969;50.780;7.726;2024-03-23T14:08:35;3.05;;;1.77;;
11823;SDS011;5969;50.780;7.726;2024-03-23T14:11:04;3.47;;;1.90;;
11823;SDS011;5969;50.780;7.726;2024-03-23T14:13:31;2.50;;;1.70;;
11823;SDS011;5969;50.780;7.726;2024-03-23T14:15:58;5.05;;;1.52;;
11823;SDS011;5969;50.780;7.726;2024-03-23T14:18:25;2.33;;;1.67;;
11823;SDS011;5969;50.780;7.726;2024-03-23T14:20:52;2.85;;;1.40;;
11823;SDS011;5969;50.780;7.726;2024-03-23T14:23:19;1.60;;;1.30;;
11823;SDS011;5969;50.780;7.726;2024-03-23T14:25:45;3.05;;;1.38;;
11823;SDS011;5969;50.780;7.726;2024-03-23T14:28:12;3.47;;;1.20;;
11823;SDS011;5969;50.780;7.726;2024-03-23T14:30:40;2.67;;;1.40;;
11823;SDS011;5969;50.780;7.726;2024-03-23T14:33:08;2.92;;;1.70;;
11823;SDS011;5969;50.780;7.726;2024-03-23T14:35:35;4.00;;;2.17;;
11823;SDS011;5969;50.780;7.726;2024-03-23T14:38:03;4.18;;;1.63;;
11823;SDS011;5969;50.780;7.726;2024-03-23T14:40:29;1.95;;;1.15;;
11823;SDS011;5969;50.780;7.726;2024-03-23T14:42:56;3.67;;;1.60;;
11823;SDS011;5969;50.780;7.726;2024-03-23T14:45:22;5.40;;;1.27;;
11823;SDS011;5969;50.780;7.726;2024-03-23T14:47:49;4.47;;;1.50;;
11823;SDS011;5969;50.780;7.726;2024-03-23T14:50:17;3.40;;;1.50;;
11823;SDS011;5969;50.780;7.726;2024-03-23T14:52:44;5.30;;;1.77;;
11823;SDS011;5969;50.780;7.726;2024-03-23T14:55:11;4.60;;;1.85;;
11823;SDS011;5969;50.780;7.726;2024-03-23T14:57:38;4.40;;;1.67;;
11823;SDS011;5969;50.780;7.726;2024-03-23T15:00:05;4.20;;;1.98;;
11823;SDS011;5969;50.780;7.726;2024-03-23T15:02:32;5.68;;;3.40;;
11823;SDS011;5969;50.780;7.726;2024-03-23T15:04:59;2.58;;;2.05;;
11823;SDS011;5969;50.780;7.726;2024-03-23T15:07:30;2.97;;;2.50;;
11823;SDS011;5969;50.780;7.726;2024-03-23T15:09:56;4.65;;;1.65;;
11823;SDS011;5969;50.780;7.726;2024-03-23T15:12:23;2.88;;;1.45;;
11823;SDS011;5969;50.780;7.726;2024-03-23T15:14:50;3.20;;;1.70;;
11823;SDS011;5969;50.780;7.726;2024-03-23T15:17:17;4.75;;;2.10;;
11823;SDS011;5969;50.780;7.726;2024-03-23T15:19:43;3.35;;;1.20;;
11823;SDS011;5969;50.780;7.726;2024-03-23T15:22:10;3.63;;;1.30;;
11823;SDS011;5969;50.780;7.726;2024-03-23T15:24:38;4.45;;;1.70;;
11823;SDS011;5969;50.780;7.726;2024-03-23T15:27:05;5.05;;;1.60;;
11823;SDS011;5969;50.780;7.726;2024-03-23T15:29:34;2.80;;;1.77;;
11823;SDS011;5969;50.780;7.726;2024-03-23T15:32:02;3.80;;;1.70;;
11823;SDS011;5969;50.780;7.726;2024-03-23T15:34:28;2.45;;;1.52;;
11823;SDS011;5969;50.780;7.726;2024-03-23T15:36:56;2.95;;;1.50;;
11823;SDS011;5969;50.780;7.726;2024-03-23T15:39:22;3.58;;;1.52;;
11823;SDS011;5969;50.780;7.726;2024-03-23T15:41:51;2.13;;;1.40;;
11823;SDS011;5969;50.780;7.726;2024-03-23T15:44:19;2.55;;;1.60;;
11823;SDS011;5969;50.780;7.726;2024-03-23T15:46:46;2.15;;;1.50;;
11823;SDS011;5969;50.780;7.726;2024-03-23T15:49:12;1.60;;;1.45;;
11823;SDS011;5969;50.780;7.726;2024-03-23T15:51:39;2.88;;;1.80;;
11823;SDS011;5969;50.780;7.726;2024-03-23T15:54:09;2.65;;;1.77;;
11823;SDS011;5969;50.780;7.726;2024-03-23T15:56:36;4.30;;;1.42;;